sensor_id;sensor_type;location;lat;lon;timestamp;pressure;altitude;pressure_sealevel;temperature;humidity
46583;BME280;32309;48.858;8.252;2023-11-21T00:00:29;99724.75;;;9.07;99.21
46583;BME280;32309;48.858;8.252;2023-11-21T00:02:29;99725.69;;;9.06;98.44
46583;BME280;32309;48.858;8.252;2023-11-21T00:04:30;99730.84;;;9.06;98.42
46583;BME280;32309;48.858;8.252;2023-11-21T00:06:33;99718.69;;;9.08;98.02
46583;BME280;32309;48.858;8.252;2023-11-21T00:08:34;99728.16;;;9.08;98.48
46583;BME280;32309;48.858;8.252;2023-11-21T00:10:35;99728.28;;;9.06;98.91
46583;BME280;32309;48.858;8.252;2023-11-21T00:12:35;99727.25;;;9.09;99.08
46583;BME280;32309;48.858;8.252;2023-11-21T00:14:36;99726.44;;;9.08;99.13
46583;BME280;32309;48.858;8.252;2023-11-21T00:16:37;99724.56;;;9.10;98.91
46583;BME280;32309;48.858;8.252;2023-11-21T00:18:37;99724.50;;;9.12;98.17
46583;BME280;32309;48.858;8.252;2023-11-21T00:20:37;99715.81;;;9.13;98.03
46583;BME280;32309;48.858;8.252;2023-11-21T00:22:38;99710.72;;;9.11;98.68
46583;BME280;32309;48.858;8.252;2023-11-21T00:24:38;99710.81;;;9.10;97.62
46583;BME280;32309;48.858;8.252;2023-11-21T00:26:38;99715.91;;;9.11;97.99
46583;BME280;32309;48.858;8.252;2023-11-21T00:28:42;99719.41;;;9.10;97.97
46583;BME280;32309;48.858;8.252;2023-11-21T00:30:42;99716.75;;;9.12;98.08
46583;BME280;32309;48.858;8.252;2023-11-21T00:32:42;99719.59;;;9.07;98.00
46583;BME280;32309;48.858;8.252;2023-11-21T00:34:43;99719.41;;;9.10;97.79
46583;BME280;32309;48.858;8.252;2023-11-21T00:36:43;99719.41;;;9.10;98.05
46583;BME280;32309;48.858;8.252;2023-11-21T00:38:43;99725.41;;;9.11;98.24
46583;BME280;32309;48.858;8.252;2023-11-21T00:40:43;99710.00;;;9.09;97.68
46583;BME280;32309;48.858;8.252;2023-11-21T00:42:44;99708.25;;;9.10;97.29
46583;BME280;32309;48.858;8.252;2023-11-21T00:44:44;99710.06;;;9.08;98.14
46583;BME280;32309;48.858;8.252;2023-11-21T00:46:46;99708.50;;;9.05;97.96
46583;BME280;32309;48.858;8.252;2023-11-21T00:48:47;99706.94;;;9.03;97.38
46583;BME280;32309;48.858;8.252;2023-11-21T00:50:47;99704.28;;;9.04;97.83
46583;BME280;32309;48.858;8.252;2023-11-21T00:52:48;99710.28;;;9.05;97.56
46583;BME280;32309;48.858;8.252;2023-11-21T00:54:48;99702.41;;;9.06;96.98
46583;BME280;32309;48.858;8.252;2023-11-21T00:56:49;99701.59;;;9.06;97.03
46583;BME280;32309;48.858;8.252;2023-11-21T00:58:49;99699.94;;;9.05;97.25
46583;BME280;32309;48.858;8.252;2023-11-21T01:00:52;99705.00;;;9.06;97.34
46583;BME280;32309;48.858;8.252;2023-11-21T01:02:52;99705.91;;;9.05;97.73
46583;BME280;32309;48.858;8.252;2023-11-21T01:04:53;99709.44;;;9.04;97.37
46583;BME280;32309;48.858;8.252;2023-11-21T01:06:53;99720.59;;;9.05;97.01
46583;BME280;32309;48.858;8.252;2023-11-21T01:08:53;99712.03;;;9.04;97.36
46583;BME280;32309;48.858;8.252;2023-11-21T01:10:54;99724.97;;;9.04;96.70
46583;BME280;32309;48.858;8.252;2023-11-21T01:12:54;99718.84;;;9.05;96.67
46583;BME280;32309;48.858;8.252;2023-11-21T01:14:55;99722.28;;;9.06;96.27
46583;BME280;32309;48.858;8.252;2023-11-21T01:16:55;99726.59;;;9.05;97.47
46583;BME280;32309;48.858;8.252;2023-11-21T01:18:55;99729.38;;;9.02;98.11
46583;BME280;32309;48.858;8.252;2023-11-21T01:20:55;99726.06;;;9.00;98.06
46583;BME280;32309;48.858;8.252;2023-11-21T01:22:56;99734.75;;;8.99;97.95
46583;BME280;32309;48.858;8.252;2023-11-21T01:24:56;99735.66;;;8.98;98.88
46583;BME280;32309;48.858;8.252;2023-11-21T01:26:57;99726.31;;;8.95;99.96
46583;BME280;32309;48.858;8.252;2023-11-21T01:28:58;99721.06;;;8.97;100.00
46583;BME280;32309;48.858;8.252;2023-11-21T01:30:59;99730.59;;;8.96;99.96
46583;BME280;32309;48.858;8.252;2023-11-21T01:32:59;99735.75;;;8.96;100.00
46583;BME280;32309;48.858;8.252;2023-11-21T01:35:00;99729.81;;;8.94;100.00
46583;BME280;32309;48.858;8.252;2023-11-21T01:37:00;99728.16;;;8.93;100.00
46583;BME280;32309;48.858;8.252;2023-11-21T01:39:01;99728.25;;;8.92;98.87
46583;BME280;32309;48.858;8.252;2023-11-21T01:41:01;99727.44;;;8.91;100.00
46583;BME280;32309;48.858;8.252;2023-11-21T01:43:02;99726.63;;;8.91;100.00
46583;BME280;32309;48.858;8.252;2023-11-21T01:45:03;99727.53;;;8.90;100.00
46583;BME280;32309;48.858;8.252;2023-11-21T01:47:07;99724.75;;;8.93;100.00
46583;BME280;32309;48.858;8.252;2023-11-21T01:49:09;99732.41;;;8.94;100.00
46583;BME280;32309;48.858;8.252;2023-11-21T01:51:13;99734.28;;;8.92;100.00
46583;BME280;32309;48.858;8.252;2023-11-21T01:53:13;99726.53;;;8.92;100.00
46583;BME280;32309;48.858;8.252;2023-11-21T01:55:14;99714.63;;;8.90;100.00
46583;BME280;32309;48.858;8.252;2023-11-21T01:57:19;99723.94;;;8.92;100.00
46583;BME280;32309;48.858;8.252;2023-11-21T01:59:21;99719.59;;;8.93;100.00
46583;BME280;32309;48.858;8.252;2023-11-21T02:01:22;99715.16;;;8.95;100.00
46583;BME280;32309;48.858;8.252;2023-11-21T02:03:26;99723.75;;;8.95;100.00
46583;BME280;32309;48.858;8.252;2023-11-21T02:05:26;99721.97;;;8.96;100.00
46583;BME280;32309;48.858;8.252;2023-11-21T02:07:27;99728.16;;;8.93;100.00
46583;BME280;32309;48.858;8.252;2023-11-21T02:09:27;99729.94;;;8.93;100.00
46583;BME280;32309;48.858;8.252;2023-11-21T02:11:29;99730.13;;;8.90;100.00
46583;BME280;32309;48.858;8.252;2023-11-21T02:13:30;99742.13;;;8.91;100.00
46583;BME280;32309;48.858;8.252;2023-11-21T02:15:31;99739.69;;;8.88;100.00
46583;BME280;32309;48.858;8.252;2023-11-21T02:17:31;99741.56;;;8.86;100.00
46583;BME280;32309;48.858;8.252;2023-11-21T02:19:32;99751.16;;;8.83;100.00
46583;BME280;32309;48.858;8.252;2023-11-21T02:21:34;99753.06;;;8.80;100.00
46583;BME280;32309;48.858;8.252;2023-11-21T02:23:36;99756.66;;;8.77;100.00
46583;BME280;32309;48.858;8.252;2023-11-21T02:25:38;99750.88;;;8.74;100.00
46583;BME280;32309;48.858;8.252;2023-11-21T02:27:38;99752.59;;;8.73;100.00
46583;BME280;32309;48.858;8.252;2023-11-21T02:29:39;99744.84;;;8.73;100.00
46583;BME280;32309;48.858;8.252;2023-11-21T02:31:39;99738.84;;;8.73;100.00
46583;BME280;32309;48.858;8.252;2023-11-21T02:33:47;99732.84;;;8.72;100.00
46583;BME280;32309;48.858;8.252;2023-11-21T02:35:48;99739.78;;;8.72;100.00
46583;BME280;32309;48.858;8.252;2023-11-21T02:37:49;99741.53;;;8.71;100.00
46583;BME280;32309;48.858;8.252;2023-11-21T02:39:49;99744.13;;;8.71;100.00
46583;BME280;32309;48.858;8.252;2023-11-21T02:41:49;99730.34;;;8.71;100.00
46583;BME280;32309;48.858;8.252;2023-11-21T02:43:52;99734.69;;;8.70;100.00
46583;BME280;32309;48.858;8.252;2023-11-21T02:45:52;99740.78;;;8.69;100.00
46583;BME280;32309;48.858;8.252;2023-11-21T02:47:52;99742.53;;;8.69;100.00
46583;BME280;32309;48.858;8.252;2023-11-21T02:49:53;99744.19;;;8.70;100.00
46583;BME280;32309;48.858;8.252;2023-11-21T02:51:54;99737.47;;;8.67;100.00
46583;BME280;32309;48.858;8.252;2023-11-21T02:53:55;99734.03;;;8.66;100.00
46583;BME280;32309;48.858;8.252;2023-11-21T02:55:58;99733.03;;;8.69;100.00
46583;BME280;32309;48.858;8.252;2023-11-21T02:57:59;99736.44;;;8.70;100.00
46583;BME280;32309;48.858;8.252;2023-11-21T02:59:59;99731.34;;;8.68;100.00
46583;BME280;32309;48.858;8.252;2023-11-21T03:02:00;99731.44;;;8.66;100.00
46583;BME280;32309;48.858;8.252;2023-11-21T03:04:03;99726.28;;;8.66;100.00
46583;BME280;32309;48.858;8.252;2023-11-21T03:06:04;99726.19;;;8.68;100.00
46583;BME280;32309;48.858;8.252;2023-11-21T03:08:07;99724.47;;;8.69;100.00
46583;BME280;32309;48.858;8.252;2023-11-21T03:10:08;99724.72;;;8.64;100.00
46583;BME280;32309;48.858;8.252;2023-11-21T03:12:09;99721.22;;;8.65;100.00
46583;BME280;32309;48.858;8.252;2023-11-21T03:14:10;99721.47;;;8.60;100.00
46583;BME280;32309;48.858;8.252;2023-11-21T03:16:10;99718.97;;;8.59;100.00
46583;BME280;32309;48.858;8.252;2023-11-21T03:18:12;99715.47;;;8.60;100.00
46583;BME280;32309;48.858;8.252;2023-11-21T03:20:13;99724.16;;;8.59;100.00
46583;BME280;32309;48.858;8.252;2023-11-21T03:22:19;99720.75;;;8.58;100.00
46583;BME280;32309;48.858;8.252;2023-11-21T03:24:19;99720.00;;;8.56;100.00
46583;BME280;32309;48.858;8.252;2023-11-21T03:26:19;99716.59;;;8.56;100.00
46583;BME280;32309;48.858;8.252;2023-11-21T03:28:23;99727.00;;;8.54;100.00
46583;BME280;32309;48.858;8.252;2023-11-21T03:30:23;99719.25;;;8.54;100.00
46583;BME280;32309;48.858;8.252;2023-11-21T03:32:23;99724.25;;;8.57;100.00
46583;BME280;32309;48.858;8.252;2023-11-21T03:34:26;99718.16;;;8.58;100.00
46583;BME280;32309;48.858;8.252;2023-11-21T03:36:26;99718.88;;;8.60;100.00
46583;BME280;32309;48.858;8.252;2023-11-21T03:38:26;99722.41;;;8.59;100.00
46583;BME280;32309;48.858;8.252;2023-11-21T03:40:27;99722.31;;;8.61;100.00
46583;BME280;32309;48.858;8.252;2023-11-21T03:42:27;99718.88;;;8.60;100.00
46583;BME280;32309;48.858;8.252;2023-11-21T03:44:28;99719.75;;;8.61;100.00
46583;BME280;32309;48.858;8.252;2023-11-21T03:46:28;99720.66;;;8.60;100.00
46583;BME280;32309;48.858;8.252;2023-11-21T03:48:28;99724.06;;;8.60;100.00
46583;BME280;32309;48.858;8.252;2023-11-21T03:50:29;99730.06;;;8.61;100.00
46583;BME280;32309;48.858;8.252;2023-11-21T03:52:29;99726.56;;;8.62;100.00
46583;BME280;32309;48.858;8.252;2023-11-21T03:54:30;99726.56;;;8.62;100.00
46583;BME280;32309;48.858;8.252;2023-11-21T03:56:33;99734.38;;;8.60;100.00
46583;BME280;32309;48.858;8.252;2023-11-21T03:58:33;99737.81;;;8.61;100.00
46583;BME280;32309;48.858;8.252;2023-11-21T04:00:34;99734.31;;;8.62;100.00
46583;BME280;32309;48.858;8.252;2023-11-21T04:02:34;99736.81;;;8.63;100.00
46583;BME280;32309;48.858;8.252;2023-11-21T04:04:35;99738.63;;;8.61;100.00
46583;BME280;32309;48.858;8.252;2023-11-21T04:06:39;99738.63;;;8.61;100.00
46583;BME280;32309;48.858;8.252;2023-11-21T04:08:39;99735.22;;;8.61;100.00
46583;BME280;32309;48.858;8.252;2023-11-21T04:10:39;99743.81;;;8.61;100.00
46583;BME280;32309;48.858;8.252;2023-11-21T04:12:40;99736.25;;;8.58;100.00
46583;BME280;32309;48.858;8.252;2023-11-21T04:14:40;99736.34;;;8.57;100.00
46583;BME280;32309;48.858;8.252;2023-11-21T04:16:41;99744.09;;;8.57;100.00
46583;BME280;32309;48.858;8.252;2023-11-21T04:18:42;99745.91;;;8.55;100.00
46583;BME280;32309;48.858;8.252;2023-11-21T04:20:42;99750.97;;;8.56;100.00
46583;BME280;32309;48.858;8.252;2023-11-21T04:22:42;99746.66;;;8.57;100.00
46583;BME280;32309;48.858;8.252;2023-11-21T04:24:44;99753.66;;;8.55;100.00
46583;BME280;32309;48.858;8.252;2023-11-21T04:26:44;99754.56;;;8.54;100.00
46583;BME280;32309;48.858;8.252;2023-11-21T04:28:44;99753.75;;;8.53;100.00
46583;BME280;32309;48.858;8.252;2023-11-21T04:30:45;99753.19;;;8.48;100.00
46583;BME280;32309;48.858;8.252;2023-11-21T04:32:45;99755.75;;;8.48;100.00
46583;BME280;32309;48.858;8.252;2023-11-21T04:34:45;99753.19;;;8.48;100.00
46583;BME280;32309;48.858;8.252;2023-11-21T04:36:46;99758.16;;;8.51;100.00
46583;BME280;32309;48.858;8.252;2023-11-21T04:38:46;99761.75;;;8.48;100.00
46583;BME280;32309;48.858;8.252;2023-11-21T04:40:46;99755.66;;;8.49;100.00
46583;BME280;32309;48.858;8.252;2023-11-21T04:42:47;99765.19;;;8.49;100.00
46583;BME280;32309;48.858;8.252;2023-11-21T04:44:48;99768.69;;;8.48;100.00
46583;BME280;32309;48.858;8.252;2023-11-21T04:46:49;99768.78;;;8.46;100.00
46583;BME280;32309;48.858;8.252;2023-11-21T04:48:50;99775.69;;;8.46;100.00
46583;BME280;32309;48.858;8.252;2023-11-21T04:50:50;99769.59;;;8.47;100.00
46583;BME280;32309;48.858;8.252;2023-11-21T04:52:51;99768.78;;;8.46;100.00
46583;BME280;32309;48.858;8.252;2023-11-21T04:54:51;99778.28;;;8.46;100.00
46583;BME280;32309;48.858;8.252;2023-11-21T04:56:54;99769.75;;;8.44;100.00
46583;BME280;32309;48.858;8.252;2023-11-21T04:58:54;99775.69;;;8.46;100.00
46583;BME280;32309;48.858;8.252;2023-11-21T05:00:54;99779.16;;;8.45;100.00
46583;BME280;32309;48.858;8.252;2023-11-21T05:02:55;99786.03;;;8.46;100.00
46583;BME280;32309;48.858;8.252;2023-11-21T05:04:55;99777.44;;;8.45;100.00
46583;BME280;32309;48.858;8.252;2023-11-21T05:06:59;99782.59;;;8.45;100.00
46583;BME280;32309;48.858;8.252;2023-11-21T05:09:03;99779.16;;;8.45;100.00
46583;BME280;32309;48.858;8.252;2023-11-21T05:11:04;99782.66;;;8.44;100.00
46583;BME280;32309;48.858;8.252;2023-11-21T05:13:04;99782.59;;;8.45;100.00
46583;BME280;32309;48.858;8.252;2023-11-21T05:15:12;99781.84;;;8.43;100.00
46583;BME280;32309;48.858;8.252;2023-11-21T05:17:15;99783.56;;;8.43;100.00
46583;BME280;32309;48.858;8.252;2023-11-21T05:19:15;99785.25;;;8.44;100.00
46583;BME280;32309;48.858;8.252;2023-11-21T05:21:15;99793.06;;;8.42;100.00
46583;BME280;32309;48.858;8.252;2023-11-21T05:23:17;99795.75;;;8.41;100.00
46583;BME280;32309;48.858;8.252;2023-11-21T05:25:17;99794.16;;;8.38;100.00
46583;BME280;32309;48.858;8.252;2023-11-21T05:27:18;99799.34;;;8.38;100.00
46583;BME280;32309;48.858;8.252;2023-11-21T05:29:18;99807.09;;;8.38;100.00
46583;BME280;32309;48.858;8.252;2023-11-21T05:31:18;99807.91;;;8.39;100.00
46583;BME280;32309;48.858;8.252;2023-11-21T05:33:19;99807.00;;;8.40;100.00
46583;BME280;32309;48.858;8.252;2023-11-21T05:35:19;99804.41;;;8.40;100.00
46583;BME280;32309;48.858;8.252;2023-11-21T05:37:19;99811.25;;;8.41;100.00
46583;BME280;32309;48.858;8.252;2023-11-21T05:39:20;99812.06;;;8.41;100.00
46583;BME280;32309;48.858;8.252;2023-11-21T05:41:21;99811.25;;;8.41;100.00
46583;BME280;32309;48.858;8.252;2023-11-21T05:43:21;99817.13;;;8.43;100.00
46583;BME280;32309;48.858;8.252;2023-11-21T05:45:21;99818.91;;;8.42;100.00
46583;BME280;32309;48.858;8.252;2023-11-21T05:47:22;99818.91;;;8.42;100.00
46583;BME280;32309;48.858;8.252;2023-11-21T05:49:22;99819.72;;;8.43;100.00
46583;BME280;32309;48.858;8.252;2023-11-21T05:51:22;99831.91;;;8.41;100.00
46583;BME280;32309;48.858;8.252;2023-11-21T05:53:28;99826.66;;;8.42;100.00
46583;BME280;32309;48.858;8.252;2023-11-21T05:55:28;99835.22;;;8.43;100.00
46583;BME280;32309;48.858;8.252;2023-11-21T05:57:29;99828.47;;;8.40;100.00
46583;BME280;32309;48.858;8.252;2023-11-21T05:59:30;99827.56;;;8.41;100.00
46583;BME280;32309;48.858;8.252;2023-11-21T06:01:30;99830.22;;;8.40;100.00
46583;BME280;32309;48.858;8.252;2023-11-21T06:03:31;99834.50;;;8.41;100.00
46583;BME280;32309;48.858;8.252;2023-11-21T06:05:31;99833.53;;;8.42;100.00
46583;BME280;32309;48.858;8.252;2023-11-21T06:07:32;99838.81;;;8.40;100.00
46583;BME280;32309;48.858;8.252;2023-11-21T06:09:33;99836.31;;;8.39;100.00
46583;BME280;32309;48.858;8.252;2023-11-21T06:11:35;99835.50;;;8.38;100.00
46583;BME280;32309;48.858;8.252;2023-11-21T06:13:35;99838.97;;;8.37;100.00
46583;BME280;32309;48.858;8.252;2023-11-21T06:15:36;99838.13;;;8.37;100.00
46583;BME280;32309;48.858;8.252;2023-11-21T06:17:36;99843.25;;;8.38;100.00
46583;BME280;32309;48.858;8.252;2023-11-21T06:19:36;99839.72;;;8.39;100.00
46583;BME280;32309;48.858;8.252;2023-11-21T06:21:36;99844.06;;;8.39;100.00
46583;BME280;32309;48.858;8.252;2023-11-21T06:23:41;99839.66;;;8.41;100.00
46583;BME280;32309;48.858;8.252;2023-11-21T06:25:41;99846.47;;;8.42;100.00
46583;BME280;32309;48.858;8.252;2023-11-21T06:27:43;99844.06;;;8.39;100.00
46583;BME280;32309;48.858;8.252;2023-11-21T06:29:45;99845.81;;;8.38;100.00
46583;BME280;32309;48.858;8.252;2023-11-21T06:31:45;99855.28;;;8.38;100.00
46583;BME280;32309;48.858;8.252;2023-11-21T06:33:46;99854.47;;;8.37;100.00
46583;BME280;32309;48.858;8.252;2023-11-21T06:35:46;99855.47;;;8.35;100.00
46583;BME280;32309;48.858;8.252;2023-11-21T06:37:47;99864.97;;;8.34;100.00
46583;BME280;32309;48.858;8.252;2023-11-21T06:39:51;99858.88;;;8.35;100.00
46583;BME280;32309;48.858;8.252;2023-11-21T06:41:54;99865.91;;;8.33;100.00
46583;BME280;32309;48.858;8.252;2023-11-21T06:43:54;99870.97;;;8.35;100.00
46583;BME280;32309;48.858;8.252;2023-11-21T06:45:54;99867.47;;;8.36;100.00
46583;BME280;32309;48.858;8.252;2023-11-21T06:47:55;99868.38;;;8.35;100.00
46583;BME280;32309;48.858;8.252;2023-11-21T06:49:56;99868.38;;;8.35;100.00
46583;BME280;32309;48.858;8.252;2023-11-21T06:51:57;99868.38;;;8.35;100.00
46583;BME280;32309;48.858;8.252;2023-11-21T06:53:58;99870.16;;;8.34;100.00
46583;BME280;32309;48.858;8.252;2023-11-21T06:55:59;99871.06;;;8.33;100.00
46583;BME280;32309;48.858;8.252;2023-11-21T06:57:59;99868.47;;;8.33;100.00
46583;BME280;32309;48.858;8.252;2023-11-21T07:00:00;99878.81;;;8.33;100.00
46583;BME280;32309;48.858;8.252;2023-11-21T07:02:01;99878.81;;;8.33;100.00
46583;BME280;32309;48.858;8.252;2023-11-21T07:04:01;99880.63;;;8.31;100.00
46583;BME280;32309;48.858;8.252;2023-11-21T07:06:01;99884.06;;;8.31;100.00
46583;BME280;32309;48.858;8.252;2023-11-21T07:08:02;99890.03;;;8.32;100.00
46583;BME280;32309;48.858;8.252;2023-11-21T07:10:04;99897.69;;;8.33;100.00
46583;BME280;32309;48.858;8.252;2023-11-21T07:12:05;99898.47;;;8.36;100.00
46583;BME280;32309;48.858;8.252;2023-11-21T07:14:07;99906.94;;;8.38;100.00
46583;BME280;32309;48.858;8.252;2023-11-21T07:16:08;99912.03;;;8.39;100.00
46583;BME280;32309;48.858;8.252;2023-11-21T07:18:10;99910.13;;;8.43;100.00
46583;BME280;32309;48.858;8.252;2023-11-21T07:20:11;99907.44;;;8.44;100.00
46583;BME280;32309;48.858;8.252;2023-11-21T07:22:12;99910.81;;;8.46;100.00
46583;BME280;32309;48.858;8.252;2023-11-21T07:24:13;99924.31;;;8.52;100.00
46583;BME280;32309;48.858;8.252;2023-11-21T07:26:14;99922.56;;;8.52;100.00
46583;BME280;32309;48.858;8.252;2023-11-21T07:28:14;99927.72;;;8.52;100.00
46583;BME280;32309;48.858;8.252;2023-11-21T07:30:15;99924.47;;;8.48;100.00
46583;BME280;32309;48.858;8.252;2023-11-21T07:32:15;99918.47;;;8.48;100.00
46583;BME280;32309;48.858;8.252;2023-11-21T07:34:16;99923.78;;;8.45;100.00
46583;BME280;32309;48.858;8.252;2023-11-21T07:36:16;99926.47;;;8.43;100.00
46583;BME280;32309;48.858;8.252;2023-11-21T07:38:18;99935.94;;;8.43;100.00
46583;BME280;32309;48.858;8.252;2023-11-21T07:40:22;99932.69;;;8.39;100.00
46583;BME280;32309;48.858;8.252;2023-11-21T07:42:25;99930.09;;;8.39;100.00
46583;BME280;32309;48.858;8.252;2023-11-21T07:44:26;99938.69;;;8.40;100.00
46583;BME280;32309;48.858;8.252;2023-11-21T07:46:29;99935.44;;;8.36;100.00
46583;BME280;32309;48.858;8.252;2023-11-21T07:48:30;99936.25;;;8.37;100.00
46583;BME280;32309;48.858;8.252;2023-11-21T07:50:31;99940.69;;;8.35;100.00
46583;BME280;32309;48.858;8.252;2023-11-21T07:52:32;99935.44;;;8.36;100.00
46583;BME280;32309;48.858;8.252;2023-11-21T07:54:32;99942.09;;;8.40;100.00
46583;BME280;32309;48.858;8.252;2023-11-21T07:56:35;99941.28;;;8.40;100.00
46583;BME280;32309;48.858;8.252;2023-11-21T07:58:36;99942.00;;;8.42;100.00
46583;BME280;32309;48.858;8.252;2023-11-21T08:00:39;99941.00;;;8.44;100.00
46583;BME280;32309;48.858;8.252;2023-11-21T08:02:39;99943.56;;;8.46;100.00
46583;BME280;32309;48.858;8.252;2023-11-21T08:04:42;99947.81;;;8.47;100.00
46583;BME280;32309;48.858;8.252;2023-11-21T08:06:45;99952.06;;;8.48;100.00
46583;BME280;32309;48.858;8.252;2023-11-21T08:08:46;99952.88;;;8.48;100.00
46583;BME280;32309;48.858;8.252;2023-11-21T08:10:47;99943.41;;;8.49;100.00
46583;BME280;32309;48.858;8.252;2023-11-21T08:12:48;99952.97;;;8.47;100.00
46583;BME280;32309;48.858;8.252;2023-11-21T08:14:51;99956.41;;;8.47;100.00
46583;BME280;32309;48.858;8.252;2023-11-21T08:16:51;99959.94;;;8.45;100.00
46583;BME280;32309;48.858;8.252;2023-11-21T08:18:52;99963.44;;;8.44;100.00
46583;BME280;32309;48.858;8.252;2023-11-21T08:20:52;99963.38;;;8.45;100.00
46583;BME280;32309;48.858;8.252;2023-11-21T08:22:55;99968.47;;;8.47;100.00
46583;BME280;32309;48.858;8.252;2023-11-21T08:24:57;99973.00;;;8.42;100.00
46583;BME280;32309;48.858;8.252;2023-11-21T08:26:58;99975.53;;;8.43;100.00
46583;BME280;32309;48.858;8.252;2023-11-21T08:28:58;99977.97;;;8.46;100.00
46583;BME280;32309;48.858;8.252;2023-11-21T08:30:58;99984.81;;;8.47;100.00
46583;BME280;32309;48.858;8.252;2023-11-21T08:33:00;99983.03;;;8.48;100.00
46583;BME280;32309;48.858;8.252;2023-11-21T08:35:03;99984.91;;;8.46;100.00
46583;BME280;32309;48.858;8.252;2023-11-21T08:37:08;99977.88;;;8.48;100.00
46583;BME280;32309;48.858;8.252;2023-11-21T08:39:09;99979.66;;;8.47;100.00
46583;BME280;32309;48.858;8.252;2023-11-21T08:41:12;99983.03;;;8.48;100.00
46583;BME280;32309;48.858;8.252;2023-11-21T08:43:17;99984.81;;;8.47;100.00
46583;BME280;32309;48.858;8.252;2023-11-21T08:45:20;99990.72;;;8.49;100.00
46583;BME280;32309;48.858;8.252;2023-11-21T08:47:37;99994.16;;;8.50;100.00
46583;BME280;32309;48.858;8.252;2023-11-21T08:49:40;99994.06;;;8.52;100.00
46583;BME280;32309;48.858;8.252;2023-11-21T08:51:41;100003.41;;;8.54;100.00
46583;BME280;32309;48.858;8.252;2023-11-21T08:53:41;100003.41;;;8.54;100.00
46583;BME280;32309;48.858;8.252;2023-11-21T08:55:44;100004.22;;;8.55;100.00
46583;BME280;32309;48.858;8.252;2023-11-21T08:57:45;100001.50;;;8.58;100.00
46583;BME280;32309;48.858;8.252;2023-11-21T08:59:46;100003.22;;;8.57;100.00
46583;BME280;32309;48.858;8.252;2023-11-21T09:01:47;99999.81;;;8.57;100.00
46583;BME280;32309;48.858;8.252;2023-11-21T09:03:47;99998.91;;;8.58;100.00
46583;BME280;32309;48.858;8.252;2023-11-21T09:05:47;100009.97;;;8.60;100.00
46583;BME280;32309;48.858;8.252;2023-11-21T09:07:48;100013.38;;;8.60;100.00
46583;BME280;32309;48.858;8.252;2023-11-21T09:09:49;100015.06;;;8.61;100.00
46583;BME280;32309;48.858;8.252;2023-11-21T09:11:50;100015.97;;;8.60;100.00
46583;BME280;32309;48.858;8.252;2023-11-21T09:13:51;100016.81;;;8.61;100.00
46583;BME280;32309;48.858;8.252;2023-11-21T09:15:54;100012.38;;;8.63;100.00
46583;BME280;32309;48.858;8.252;2023-11-21T09:17:55;100012.25;;;8.66;100.00
46583;BME280;32309;48.858;8.252;2023-11-21T09:19:56;100015.47;;;8.70;100.00
46583;BME280;32309;48.858;8.252;2023-11-21T09:21:57;100022.06;;;8.75;100.00
46583;BME280;32309;48.858;8.252;2023-11-21T09:23:57;100024.56;;;8.77;100.00
46583;BME280;32309;48.858;8.252;2023-11-21T09:25:58;100032.16;;;8.80;100.00
46583;BME280;32309;48.858;8.252;2023-11-21T09:28:03;100027.66;;;8.83;100.00
46583;BME280;32309;48.858;8.252;2023-11-21T09:30:07;100028.41;;;8.86;100.00
46583;BME280;32309;48.858;8.252;2023-11-21T09:32:09;100038.50;;;8.90;100.00
46583;BME280;32309;48.858;8.252;2023-11-21T09:34:11;100034.81;;;8.94;100.00
46583;BME280;32309;48.858;8.252;2023-11-21T09:36:12;100037.31;;;8.96;100.00
46583;BME280;32309;48.858;8.252;2023-11-21T09:38:14;100039.00;;;8.97;100.00
46583;BME280;32309;48.858;8.252;2023-11-21T09:40:14;100038.00;;;8.99;100.00
46583;BME280;32309;48.858;8.252;2023-11-21T09:42:25;100051.00;;;8.98;100.00
46583;BME280;32309;48.858;8.252;2023-11-21T09:44:35;100047.41;;;9.01;100.00
46583;BME280;32309;48.858;8.252;2023-11-21T09:46:37;100054.34;;;9.00;100.00
46583;BME280;32309;48.858;8.252;2023-11-21T09:48:40;100055.19;;;9.01;100.00
46583;BME280;32309;48.858;8.252;2023-11-21T09:50:41;100052.41;;;9.04;100.00
46583;BME280;32309;48.858;8.252;2023-11-21T09:52:49;100061.03;;;9.04;100.00
46583;BME280;32309;48.858;8.252;2023-11-21T09:55:00;100058.44;;;9.04;100.00
46583;BME280;32309;48.858;8.252;2023-11-21T09:57:02;100061.16;;;9.01;100.00
46583;BME280;32309;48.858;8.252;2023-11-21T09:59:05;100061.16;;;9.01;100.00
46583;BME280;32309;48.858;8.252;2023-11-21T10:01:09;100067.28;;;9.00;100.00
46583;BME280;32309;48.858;8.252;2023-11-21T10:03:12;100062.94;;;9.01;100.00
46583;BME280;32309;48.858;8.252;2023-11-21T10:05:13;100071.59;;;8.99;100.00
46583;BME280;32309;48.858;8.252;2023-11-21T10:07:15;100067.34;;;8.98;100.00
46583;BME280;32309;48.858;8.252;2023-11-21T10:09:17;100057.94;;;8.97;100.00
46583;BME280;32309;48.858;8.252;2023-11-21T10:11:20;100063.25;;;8.94;100.00
46583;BME280;32309;48.858;8.252;2023-11-21T10:13:24;100068.34;;;8.96;100.00
46583;BME280;32309;48.858;8.252;2023-11-21T10:15:30;100060.59;;;8.96;100.00
46583;BME280;32309;48.858;8.252;2023-11-21T10:17:35;100069.19;;;8.96;100.00
46583;BME280;32309;48.858;8.252;2023-11-21T10:19:43;100062.34;;;8.95;100.00
46583;BME280;32309;48.858;8.252;2023-11-21T10:21:47;100064.03;;;8.96;100.00
46583;BME280;32309;48.858;8.252;2023-11-21T10:23:47;100059.09;;;8.92;100.00
46583;BME280;32309;48.858;8.252;2023-11-21T10:25:47;100066.94;;;8.90;100.00
46583;BME280;32309;48.858;8.252;2023-11-21T10:27:49;100066.75;;;8.93;100.00
46583;BME280;32309;48.858;8.252;2023-11-21T10:29:52;100067.84;;;8.89;100.00
46583;BME280;32309;48.858;8.252;2023-11-21T10:31:53;100068.59;;;8.91;100.00
46583;BME280;32309;48.858;8.252;2023-11-21T10:36:13;100065.25;;;8.89;100.00
46583;BME280;32309;48.858;8.252;2023-11-21T10:38:13;100072.00;;;8.92;100.00
46583;BME280;32309;48.858;8.252;2023-11-21T10:40:14;100071.38;;;8.88;100.00
46583;BME280;32309;48.858;8.252;2023-11-21T10:42:14;100074.00;;;8.87;100.00
46583;BME280;32309;48.858;8.252;2023-11-21T10:44:17;100078.34;;;8.86;100.00